createdAt,value
2018-12-18T00:00:16.768Z,0.00
2018-12-18T00:01:16.893Z,0.00
2018-12-18T00:02:17.022Z,0.00
2018-12-18T00:03:17.153Z,0.00
2018-12-18T00:04:17.285Z,0.00
2018-12-18T00:05:17.425Z,0.00
2018-12-18T00:06:17.552Z,0.00
2018-12-18T00:07:17.690Z,0.00
2018-12-18T00:08:17.822Z,0.00
2018-12-18T00:09:17.957Z,0.00
2018-12-18T00:10:18.089Z,0.00
2018-12-18T00:11:18.225Z,0.00
2018-12-18T00:12:18.350Z,0.00
2018-12-18T00:13:18.477Z,0.00
2018-12-18T00:14:18.605Z,0.00
2018-12-18T00:15:18.738Z,0.00
2018-12-18T00:16:18.866Z,0.00
2018-12-18T00:17:18.993Z,0.00
2018-12-18T00:18:19.124Z,0.00
2018-12-18T00:19:19.253Z,0.00
2018-12-18T00:20:19.379Z,0.00
2018-12-18T00:21:19.514Z,0.00
2018-12-18T00:22:19.639Z,0.00
2018-12-18T00:23:19.772Z,0.00
2018-12-18T00:24:19.901Z,0.00
2018-12-18T00:25:20.031Z,0.00
2018-12-18T00:26:20.163Z,0.00
2018-12-18T00:27:20.292Z,0.00
2018-12-18T00:28:20.410Z,0.00
2018-12-18T00:29:20.538Z,0.00
2018-12-18T00:30:20.681Z,0.00
2018-12-18T00:31:20.815Z,0.00
2018-12-18T00:32:20.946Z,0.00
2018-12-18T00:33:21.079Z,0.00
2018-12-18T00:34:21.237Z,0.00
2018-12-18T00:35:21.362Z,0.00
2018-12-18T00:36:21.488Z,0.00
2018-12-18T00:37:21.615Z,0.00
2018-12-18T00:38:21.763Z,0.00
2018-12-18T00:39:21.892Z,0.00
2018-12-18T00:40:22.025Z,0.00
2018-12-18T00:41:22.150Z,0.00
2018-12-18T00:42:22.314Z,0.00
2018-12-18T00:43:22.434Z,0.00
2018-12-18T00:44:22.576Z,0.00
2018-12-18T00:45:22.699Z,0.00
2018-12-18T00:46:22.859Z,0.00
2018-12-18T00:47:22.985Z,0.00
2018-12-18T00:48:23.150Z,0.00
2018-12-18T00:49:23.271Z,0.00
2018-12-18T00:50:23.396Z,0.00
2018-12-18T00:51:23.553Z,0.00
2018-12-18T00:52:23.684Z,0.00
2018-12-18T00:53:23.823Z,0.00
2018-12-18T00:54:23.945Z,0.00
2018-12-18T00:55:24.080Z,0.00
2018-12-18T00:56:24.204Z,0.00
2018-12-18T00:57:24.366Z,0.00
2018-12-18T00:58:24.502Z,0.00
2018-12-18T00:59:24.637Z,0.00
2018-12-18T01:00:24.783Z,0.00
2018-12-18T01:01:24.908Z,0.00
2018-12-18T01:02:25.058Z,0.00
2018-12-18T01:03:25.184Z,0.00
2018-12-18T01:04:25.315Z,0.00
2018-12-18T01:05:25.461Z,0.00
2018-12-18T01:06:25.590Z,0.00
2018-12-18T01:07:25.724Z,0.00
2018-12-18T01:08:25.852Z,0.00
2018-12-18T01:09:25.984Z,0.00
2018-12-18T01:10:26.112Z,0.00
2018-12-18T01:11:26.241Z,0.00
2018-12-18T01:12:26.377Z,0.00
2018-12-18T01:13:26.496Z,0.00
2018-12-18T01:14:26.626Z,0.00
2018-12-18T01:15:26.757Z,0.00
2018-12-18T01:16:26.880Z,0.00
2018-12-18T01:17:27.589Z,0.00
2018-12-18T01:18:27.120Z,0.00
2018-12-18T01:19:27.250Z,0.00
2018-12-18T01:20:27.380Z,0.00
2018-12-18T01:21:27.506Z,0.00
2018-12-18T01:22:27.639Z,0.00
2018-12-18T01:23:27.764Z,0.00
2018-12-18T01:24:27.893Z,0.00
2018-12-18T01:25:28.027Z,0.00
2018-12-18T01:26:28.146Z,0.00
2018-12-18T01:27:28.279Z,0.00
2018-12-18T01:28:28.405Z,0.00
2018-12-18T01:29:28.536Z,0.00
2018-12-18T01:30:28.668Z,0.00
2018-12-18T01:31:28.803Z,0.00
2018-12-18T01:32:28.929Z,0.00
2018-12-18T01:33:29.061Z,0.00
2018-12-18T01:34:29.231Z,0.00
2018-12-18T01:35:29.378Z,0.00
2018-12-18T01:36:29.507Z,0.00
2018-12-18T01:37:29.637Z,0.00
2018-12-18T01:38:29.767Z,0.00
2018-12-18T01:39:29.895Z,0.00
2018-12-18T01:40:30.038Z,0.00
2018-12-18T01:41:30.210Z,0.00
2018-12-18T01:42:30.340Z,0.00
2018-12-18T01:43:30.473Z,0.00
2018-12-18T01:44:30.605Z,0.00
2018-12-18T01:45:30.775Z,0.00
2018-12-18T01:46:31.005Z,0.00
2018-12-18T01:47:31.005Z,0.00
2018-12-18T01:48:31.142Z,0.00
2018-12-18T01:49:31.290Z,0.00
2018-12-18T01:50:31.416Z,0.00
2018-12-18T01:51:31.544Z,0.00
2018-12-18T01:52:31.671Z,0.00
2018-12-18T01:53:31.823Z,0.00
2018-12-18T01:54:31.943Z,0.00
2018-12-18T01:55:32.070Z,0.00
2018-12-18T01:56:32.207Z,0.00
2018-12-18T01:57:32.352Z,0.00
2018-12-18T01:58:32.477Z,0.00
2018-12-18T01:59:32.608Z,0.00
2018-12-18T02:00:32.752Z,0.00
2018-12-18T02:01:32.948Z,0.00
2018-12-18T02:02:33.071Z,0.00
2018-12-18T02:03:33.208Z,0.00
2018-12-18T02:04:33.337Z,0.00
2018-12-18T02:05:33.494Z,0.00
2018-12-18T02:06:33.704Z,0.00
2018-12-18T02:07:33.711Z,0.00
2018-12-18T02:08:33.838Z,0.00
2018-12-18T02:09:33.985Z,0.00
2018-12-18T02:10:34.114Z,0.00
2018-12-18T02:11:34.247Z,0.00
2018-12-18T02:12:34.395Z,0.00
2018-12-18T02:13:34.522Z,0.00
2018-12-18T02:14:34.649Z,0.00
2018-12-18T02:15:34.776Z,0.00
2018-12-18T02:16:34.902Z,0.00
2018-12-18T02:17:35.031Z,0.00
2018-12-18T02:18:35.161Z,0.00
2018-12-18T02:19:35.291Z,0.00
2018-12-18T02:20:35.437Z,0.00
2018-12-18T02:21:35.565Z,0.00
2018-12-18T02:22:35.692Z,0.00
2018-12-18T02:23:35.825Z,0.00
2018-12-18T02:24:35.952Z,0.00
2018-12-18T02:25:36.095Z,0.00
2018-12-18T02:26:36.221Z,0.00
2018-12-18T02:27:36.352Z,0.00
2018-12-18T02:28:36.483Z,0.00
2018-12-18T02:29:36.617Z,0.00
2018-12-18T02:30:36.744Z,0.00
2018-12-18T02:31:36.872Z,0.00
2018-12-18T02:32:36.998Z,0.00
2018-12-18T02:33:37.133Z,0.00
2018-12-18T02:34:37.255Z,0.00
2018-12-18T02:35:37.386Z,0.00
2018-12-18T02:36:37.512Z,0.00
2018-12-18T02:37:37.643Z,0.00
2018-12-18T02:38:37.766Z,0.00
2018-12-18T02:39:37.894Z,0.00
2018-12-18T02:40:38.024Z,0.00
2018-12-18T02:41:38.158Z,0.00
2018-12-18T02:42:38.281Z,0.00
2018-12-18T02:43:38.410Z,0.00
2018-12-18T02:44:38.536Z,0.00
2018-12-18T02:45:38.673Z,0.00
2018-12-18T02:46:38.795Z,0.00
2018-12-18T02:47:38.924Z,0.00
2018-12-18T02:48:39.058Z,0.00
2018-12-18T02:49:39.201Z,0.00
2018-12-18T02:50:39.333Z,0.00
2018-12-18T02:51:39.455Z,0.00
2018-12-18T02:52:39.586Z,0.00
2018-12-18T02:53:39.738Z,0.00
2018-12-18T02:54:39.859Z,0.00
2018-12-18T02:55:39.989Z,0.00
2018-12-18T02:56:40.128Z,0.00
2018-12-18T02:57:41.232Z,0.00
2018-12-18T02:58:40.355Z,0.00
2018-12-18T02:59:40.483Z,0.00
2018-12-18T03:00:40.650Z,0.00
2018-12-18T03:01:40.781Z,0.00
2018-12-18T03:02:40.936Z,0.00
2018-12-18T03:03:41.096Z,0.00
2018-12-18T03:04:41.188Z,0.00
2018-12-18T03:05:41.312Z,0.00
2018-12-18T03:06:41.531Z,0.00
2018-12-18T03:07:41.525Z,0.00
2018-12-18T03:08:41.679Z,0.00
2018-12-18T03:09:49.748Z,0.00
2018-12-18T03:10:41.877Z,0.00
2018-12-18T03:11:42.002Z,0.00
2018-12-18T03:12:42.132Z,0.00
2018-12-18T03:13:42.262Z,0.00
2018-12-18T03:14:42.395Z,0.00
2018-12-18T03:15:42.518Z,0.00
2018-12-18T03:16:42.645Z,0.00
2018-12-18T03:17:42.772Z,0.00
2018-12-18T03:18:42.925Z,0.00
2018-12-18T03:19:43.051Z,0.00
2018-12-18T03:20:43.180Z,0.00
2018-12-18T03:21:43.310Z,0.00
2018-12-18T03:22:43.443Z,0.00
2018-12-18T03:23:43.574Z,0.00
2018-12-18T03:24:43.707Z,0.00
2018-12-18T03:25:43.831Z,0.00
2018-12-18T03:26:43.955Z,0.00
2018-12-18T03:27:44.088Z,0.00
2018-12-18T03:28:44.224Z,0.00
2018-12-18T03:29:44.346Z,0.00
2018-12-18T03:30:44.484Z,0.00
2018-12-18T03:31:44.599Z,0.00
2018-12-18T03:32:44.729Z,0.00
2018-12-18T03:33:44.855Z,0.00
2018-12-18T03:34:44.991Z,0.00
2018-12-18T03:35:45.123Z,0.00
2018-12-18T03:36:45.326Z,0.00
2018-12-18T03:37:45.379Z,0.00
2018-12-18T03:38:45.510Z,0.00
2018-12-18T03:39:45.643Z,0.00
2018-12-18T03:40:45.770Z,0.00
2018-12-18T03:41:45.902Z,0.00
2018-12-18T03:42:46.029Z,0.00
2018-12-18T03:43:46.159Z,0.00
2018-12-18T03:44:46.293Z,0.00
2018-12-18T03:45:46.424Z,0.00
2018-12-18T03:46:46.556Z,0.00
2018-12-18T03:47:46.690Z,0.00
2018-12-18T03:48:46.827Z,0.00
2018-12-18T03:49:46.956Z,0.00
2018-12-18T03:50:47.083Z,0.00
2018-12-18T03:51:48.105Z,0.00
2018-12-18T03:52:47.397Z,0.00
2018-12-18T03:53:47.514Z,0.00
2018-12-18T03:54:47.644Z,0.00
2018-12-18T03:55:47.773Z,0.00
2018-12-18T03:56:47.902Z,0.00
2018-12-18T03:57:48.027Z,0.00
2018-12-18T03:58:48.157Z,0.00
2018-12-18T03:59:48.289Z,0.00
2018-12-18T04:00:48.435Z,0.00
2018-12-18T04:01:48.557Z,0.00
2018-12-18T04:02:48.686Z,0.00
2018-12-18T04:03:48.819Z,0.00
2018-12-18T04:04:48.982Z,0.00
2018-12-18T04:05:49.120Z,0.00
2018-12-18T04:06:49.234Z,0.00
2018-12-18T04:07:49.370Z,0.00
2018-12-18T04:08:49.524Z,0.00
2018-12-18T04:09:49.656Z,0.00
2018-12-18T04:10:49.786Z,0.00
2018-12-18T04:11:49.907Z,0.00
2018-12-18T04:12:50.065Z,0.00
2018-12-18T04:13:50.193Z,0.00
2018-12-18T04:14:50.344Z,0.00
2018-12-18T04:15:50.459Z,0.00
2018-12-18T04:16:50.610Z,0.00
2018-12-18T04:17:50.736Z,0.00
2018-12-18T04:18:50.866Z,0.00
2018-12-18T04:19:51.001Z,0.00
2018-12-18T04:20:51.145Z,0.00
2018-12-18T04:21:51.266Z,0.00
2018-12-18T04:22:51.395Z,0.00
2018-12-18T04:23:51.524Z,0.00
2018-12-18T04:24:51.685Z,0.00
2018-12-18T04:25:51.807Z,0.00
2018-12-18T04:26:51.940Z,0.00
2018-12-18T04:27:52.073Z,0.00
2018-12-18T04:28:52.246Z,0.00
2018-12-18T04:29:53.697Z,0.00
2018-12-18T04:30:52.456Z,0.00
2018-12-18T04:31:52.581Z,0.00
2018-12-18T04:32:52.735Z,0.00
2018-12-18T04:33:52.856Z,0.00
2018-12-18T04:34:52.990Z,0.00
2018-12-18T04:35:53.118Z,0.00
2018-12-18T04:36:53.274Z,0.00
2018-12-18T04:37:53.403Z,0.00
2018-12-18T04:38:53.531Z,0.00
2018-12-18T04:39:53.664Z,0.00
2018-12-18T04:40:53.821Z,0.00
2018-12-18T04:41:53.953Z,0.00
2018-12-18T04:42:54.081Z,0.00
2018-12-18T04:43:54.211Z,0.00
2018-12-18T04:44:54.346Z,0.00
2018-12-18T04:45:54.470Z,0.00
2018-12-18T04:46:54.601Z,0.00
2018-12-18T04:47:54.728Z,0.00
2018-12-18T04:48:54.873Z,0.00
2018-12-18T04:49:54.994Z,0.00
2018-12-18T04:50:55.131Z,0.00
2018-12-18T04:51:55.258Z,0.00
2018-12-18T04:52:55.392Z,0.00
2018-12-18T04:53:55.603Z,0.00
2018-12-18T04:54:55.611Z,0.00
2018-12-18T04:55:55.747Z,0.00
2018-12-18T04:56:55.886Z,0.00
2018-12-18T04:57:56.038Z,0.00
2018-12-18T04:58:56.164Z,0.00
2018-12-18T04:59:56.295Z,0.00
2018-12-18T05:00:56.475Z,0.00
2018-12-18T05:01:56.676Z,0.00
2018-12-18T05:02:56.683Z,0.00
2018-12-18T05:03:56.819Z,0.00
2018-12-18T05:04:56.963Z,0.00
2018-12-18T05:05:57.124Z,0.00
2018-12-18T05:06:57.252Z,0.00
2018-12-18T05:07:57.380Z,0.00
2018-12-18T05:08:57.517Z,0.00
2018-12-18T05:09:57.658Z,0.00
2018-12-18T05:10:57.783Z,0.00
2018-12-18T05:11:57.920Z,0.00
2018-12-18T05:12:58.054Z,0.00
2018-12-18T05:13:58.178Z,0.00
2018-12-18T05:14:58.304Z,0.00
2018-12-18T05:15:58.435Z,0.00
2018-12-18T05:16:58.572Z,0.00
2018-12-18T05:17:58.701Z,0.00
2018-12-18T05:18:58.826Z,0.00
2018-12-18T05:19:58.965Z,0.00
2018-12-18T05:20:59.161Z,0.00
2018-12-18T05:21:59.170Z,0.00
2018-12-18T05:22:59.300Z,0.00
2018-12-18T05:23:59.448Z,0.00
2018-12-18T05:25:08.938Z,0.00
2018-12-18T05:25:59.681Z,0.00
2018-12-18T05:26:59.813Z,0.00
2018-12-18T05:27:59.971Z,0.00
2018-12-18T05:29:00.417Z,0.00
2018-12-18T05:30:00.171Z,0.00
2018-12-18T05:31:00.312Z,0.00
2018-12-18T05:32:00.475Z,0.00
2018-12-18T05:33:00.606Z,0.00
2018-12-18T05:34:00.739Z,0.00
2018-12-18T05:35:00.895Z,0.00
2018-12-18T05:36:01.105Z,0.00
2018-12-18T05:37:01.110Z,0.00
2018-12-18T05:38:01.821Z,0.00
2018-12-18T05:39:01.407Z,0.00
2018-12-18T05:40:01.515Z,0.00
2018-12-18T05:41:01.643Z,0.00
2018-12-18T05:42:01.769Z,0.00
2018-12-18T05:43:01.925Z,0.00
2018-12-18T05:44:10.944Z,0.00
2018-12-18T05:45:02.201Z,0.00
2018-12-18T05:46:02.325Z,0.00
2018-12-18T05:47:02.466Z,0.00
2018-12-18T05:48:02.585Z,0.00
2018-12-18T05:49:02.724Z,0.00
2018-12-18T05:50:02.852Z,0.00
2018-12-18T05:51:03.012Z,0.00
2018-12-18T05:52:03.131Z,0.00
2018-12-18T05:53:03.263Z,0.00
2018-12-18T05:54:03.396Z,0.00
2018-12-18T05:55:03.547Z,0.00
2018-12-18T05:56:03.671Z,0.00
2018-12-18T05:57:03.803Z,0.00
2018-12-18T05:58:03.937Z,0.00
2018-12-18T05:59:04.112Z,0.00
2018-12-18T06:00:04.346Z,0.00
2018-12-18T06:01:04.370Z,0.00
2018-12-18T06:02:04.474Z,0.00
2018-12-18T06:03:04.613Z,0.00
2018-12-18T06:04:04.737Z,0.00
2018-12-18T06:05:04.875Z,0.00
2018-12-18T06:06:05.010Z,0.00
2018-12-18T06:07:05.156Z,0.00
2018-12-18T06:08:06.870Z,0.00
2018-12-18T06:09:05.373Z,0.00
2018-12-18T06:10:05.502Z,0.00
2018-12-18T06:11:05.650Z,0.00
2018-12-18T06:12:05.776Z,0.00
2018-12-18T06:13:05.906Z,0.00
2018-12-18T06:14:06.042Z,0.00
2018-12-18T06:15:06.175Z,0.00
2018-12-18T06:16:06.308Z,0.00
2018-12-18T06:17:06.433Z,0.00
2018-12-18T06:18:06.561Z,0.00
2018-12-18T06:19:06.690Z,0.00
2018-12-18T06:20:06.818Z,0.00
2018-12-18T06:21:06.954Z,0.00
2018-12-18T06:22:07.081Z,0.00
2018-12-18T06:23:07.217Z,0.00
2018-12-18T06:24:07.339Z,0.00
2018-12-18T06:25:07.471Z,0.00
2018-12-18T06:26:07.599Z,0.00
2018-12-18T06:27:07.726Z,0.00
2018-12-18T06:28:07.856Z,0.00
2018-12-18T06:29:07.982Z,0.00
2018-12-18T06:30:08.114Z,0.00
2018-12-18T06:31:08.243Z,0.00
2018-12-18T06:32:08.373Z,0.00
2018-12-18T06:33:08.507Z,0.00
2018-12-18T06:34:08.628Z,0.00
2018-12-18T06:35:10.474Z,0.00
2018-12-18T06:36:08.884Z,0.00
2018-12-18T06:37:09.012Z,0.00
2018-12-18T06:38:09.179Z,0.00
2018-12-18T06:39:09.309Z,0.00
2018-12-18T06:40:09.441Z,0.00
2018-12-18T06:41:09.584Z,0.00
2018-12-18T06:42:09.705Z,0.00
2018-12-18T06:43:09.837Z,0.00
2018-12-18T06:44:09.968Z,0.00
2018-12-18T06:45:10.099Z,0.00
2018-12-18T06:46:10.225Z,0.00
2018-12-18T06:47:10.358Z,0.00
2018-12-18T06:48:10.484Z,0.00
2018-12-18T06:49:10.618Z,0.00
2018-12-18T06:50:10.746Z,0.00
2018-12-18T06:51:10.873Z,0.00
2018-12-18T06:52:11.001Z,0.00
2018-12-18T06:53:11.126Z,4.00
2018-12-18T06:54:11.257Z,4.00
2018-12-18T06:55:11.383Z,4.00
2018-12-18T06:56:11.533Z,0.00
2018-12-18T06:57:27.563Z,4.00
2018-12-18T06:58:11.815Z,4.00
2018-12-18T06:59:11.953Z,4.00
2018-12-18T07:00:12.087Z,4.00
2018-12-18T07:01:12.750Z,4.00
2018-12-18T07:02:12.397Z,4.00
2018-12-18T07:03:12.528Z,8.00
2018-12-18T07:04:12.672Z,8.00
2018-12-18T07:05:16.718Z,8.00
2018-12-18T07:06:12.927Z,8.00
2018-12-18T07:07:13.062Z,8.00
2018-12-18T07:08:13.196Z,12.00
2018-12-18T07:09:13.410Z,12.00
2018-12-18T07:10:13.416Z,16.00
2018-12-18T07:11:13.543Z,16.00
2018-12-18T07:12:13.702Z,20.00
2018-12-18T07:13:21.601Z,20.00
2018-12-18T07:14:13.975Z,20.00
2018-12-18T07:15:14.105Z,24.00
2018-12-18T07:16:14.258Z,20.00
2018-12-18T07:17:14.385Z,24.00
2018-12-18T07:18:14.519Z,24.00
2018-12-18T07:19:14.649Z,28.00
2018-12-18T07:20:14.801Z,28.00
2018-12-18T07:21:15.026Z,28.00
2018-12-18T07:22:15.032Z,32.00
2018-12-18T07:23:15.150Z,32.00
2018-12-18T07:24:15.319Z,36.00
2018-12-18T07:25:15.443Z,40.00
2018-12-18T07:26:15.575Z,44.00
2018-12-18T07:27:15.744Z,48.00
2018-12-18T07:28:15.927Z,48.00
2018-12-18T07:29:18.135Z,52.00
2018-12-18T07:30:16.133Z,56.00
2018-12-18T07:31:16.262Z,56.00
2018-12-18T07:32:16.405Z,60.00
2018-12-18T07:33:16.526Z,68.00
2018-12-18T07:34:16.654Z,72.00
2018-12-18T07:35:23.047Z,72.00
2018-12-18T07:36:16.924Z,76.00
2018-12-18T07:37:23.893Z,76.00
2018-12-18T07:38:17.112Z,84.00
2018-12-18T07:39:17.241Z,80.00
2018-12-18T07:40:17.404Z,84.00
2018-12-18T07:41:24.362Z,92.00
2018-12-18T07:42:17.614Z,88.00
2018-12-18T07:43:17.750Z,92.00
2018-12-18T07:44:17.907Z,100.00
2018-12-18T07:45:18.031Z,104.00
2018-12-18T07:46:18.166Z,108.00
2018-12-18T07:47:18.293Z,116.00
2018-12-18T07:48:18.450Z,124.00
2018-12-18T07:49:18.585Z,132.00
2018-12-18T07:50:18.726Z,140.00
2018-12-18T07:51:18.862Z,144.00
2018-12-18T07:52:19.022Z,152.00
2018-12-18T07:53:19.239Z,152.00
2018-12-18T07:54:19.240Z,156.00
2018-12-18T07:55:19.370Z,168.00
2018-12-18T07:56:19.524Z,168.00
2018-12-18T07:57:19.653Z,160.00
2018-12-18T07:58:19.785Z,164.00
2018-12-18T07:59:19.935Z,176.00
2018-12-18T08:00:20.062Z,180.00
2018-12-18T08:01:20.197Z,176.00
2018-12-18T08:02:20.327Z,180.00
2018-12-18T08:03:20.483Z,184.00
2018-12-18T08:04:21.219Z,184.00
2018-12-18T08:05:20.735Z,196.00
2018-12-18T08:06:20.860Z,212.00
2018-12-18T08:07:20.989Z,220.00
2018-12-18T08:08:21.117Z,220.00
2018-12-18T08:09:21.246Z,224.00
2018-12-18T08:10:21.388Z,232.00
2018-12-18T08:11:21.515Z,232.00
2018-12-18T08:12:21.644Z,232.00
2018-12-18T08:13:21.811Z,232.00
2018-12-18T08:14:21.970Z,228.00
2018-12-18T08:15:22.094Z,212.00
2018-12-18T08:16:22.231Z,212.00
2018-12-18T08:17:22.369Z,188.00
2018-12-18T08:18:22.493Z,208.00
2018-12-18T08:19:22.624Z,228.00
2018-12-18T08:20:22.751Z,240.00
2018-12-18T08:21:22.885Z,252.00
2018-12-18T08:22:23.019Z,244.00
2018-12-18T08:23:23.150Z,260.00
2018-12-18T08:24:23.278Z,260.00
2018-12-18T08:25:23.405Z,252.00
2018-12-18T08:26:23.537Z,252.00
2018-12-18T08:27:23.672Z,264.00
2018-12-18T08:28:23.797Z,264.00
2018-12-18T08:29:23.934Z,252.00
2018-12-18T08:30:24.063Z,252.00
2018-12-18T08:31:24.191Z,264.00
2018-12-18T08:32:24.324Z,276.00
2018-12-18T08:33:24.472Z,288.00
2018-12-18T08:34:24.601Z,284.00
2018-12-18T08:35:24.730Z,296.00
2018-12-18T08:36:24.862Z,304.00
2018-12-18T08:37:24.998Z,304.00
2018-12-18T08:38:25.124Z,308.00
2018-12-18T08:39:25.258Z,328.00
2018-12-18T08:40:25.383Z,356.00
2018-12-18T08:41:25.516Z,368.00
2018-12-18T08:42:25.639Z,376.00
2018-12-18T08:43:25.786Z,400.00
2018-12-18T08:44:25.897Z,428.00
2018-12-18T08:45:26.028Z,472.00
2018-12-18T08:46:26.155Z,484.00
2018-12-18T08:47:26.289Z,492.00
2018-12-18T08:48:26.424Z,480.00
2018-12-18T08:49:26.572Z,484.00
2018-12-18T08:50:26.697Z,468.00
2018-12-18T08:51:26.837Z,448.00
2018-12-18T08:52:26.964Z,460.00
2018-12-18T08:53:27.112Z,480.00
2018-12-18T08:54:27.316Z,496.00
2018-12-18T08:55:27.317Z,464.00
2018-12-18T08:56:27.912Z,512.00
2018-12-18T08:57:27.600Z,512.00
2018-12-18T08:58:27.724Z,500.00
2018-12-18T08:59:27.855Z,488.00
2018-12-18T09:00:27.985Z,496.00
2018-12-18T09:01:28.133Z,500.00
2018-12-18T09:02:28.256Z,520.00
2018-12-18T09:03:28.386Z,524.00
2018-12-18T09:04:28.516Z,524.00
2018-12-18T09:05:28.653Z,532.00
2018-12-18T09:06:28.775Z,520.00
2018-12-18T09:07:28.904Z,532.00
2018-12-18T09:08:29.034Z,520.00
2018-12-18T09:09:29.216Z,512.00
2018-12-18T09:10:29.366Z,524.00
2018-12-18T09:11:29.496Z,524.00
2018-12-18T09:12:29.625Z,508.00
2018-12-18T09:13:29.787Z,496.00
2018-12-18T09:14:29.917Z,492.00
2018-12-18T09:15:30.048Z,476.00
2018-12-18T09:16:30.196Z,460.00
2018-12-18T09:17:30.331Z,460.00
2018-12-18T09:18:30.460Z,440.00
2018-12-18T09:19:30.587Z,420.00
2018-12-18T09:20:30.721Z,404.00
2018-12-18T09:21:30.862Z,404.00
2018-12-18T09:22:30.996Z,380.00
2018-12-18T09:23:31.125Z,376.00
2018-12-18T09:24:31.258Z,368.00
2018-12-18T09:25:32.166Z,368.00
2018-12-18T09:26:31.564Z,380.00
2018-12-18T09:27:31.694Z,384.00
2018-12-18T09:28:31.892Z,392.00
2018-12-18T09:29:31.917Z,380.00
2018-12-18T09:30:32.027Z,404.00
2018-12-18T09:31:32.158Z,436.00
2018-12-18T09:32:32.284Z,472.00
2018-12-18T09:33:32.417Z,520.00
2018-12-18T09:34:32.561Z,564.00
2018-12-18T09:35:32.695Z,628.00
2018-12-18T09:36:32.818Z,704.00
2018-12-18T09:37:32.951Z,768.00
2018-12-18T09:38:33.078Z,816.00
2018-12-18T09:39:33.226Z,860.00
2018-12-18T09:40:33.367Z,904.00
2018-12-18T09:41:33.492Z,924.00
2018-12-18T09:42:33.645Z,924.00
2018-12-18T09:43:33.773Z,896.00
2018-12-18T09:44:33.903Z,824.00
2018-12-18T09:45:34.079Z,820.00
2018-12-18T09:48:06.428Z,732.00
2018-12-18T09:49:06.549Z,712.00
2018-12-18T09:50:06.677Z,684.00
2018-12-18T09:51:06.801Z,712.00
2018-12-18T09:52:06.952Z,728.00
2018-12-18T09:53:07.079Z,720.00
2018-12-18T09:54:07.208Z,676.00
2018-12-18T09:55:08.149Z,668.00
2018-12-18T09:56:07.452Z,652.00
2018-12-18T09:57:07.591Z,636.00
2018-12-18T09:58:07.715Z,640.00
2018-12-18T09:59:07.855Z,668.00
2018-12-18T10:00:08.136Z,628.00
2018-12-18T10:01:08.159Z,660.00
2018-12-18T10:02:08.288Z,732.00
2018-12-18T10:03:08.420Z,752.00
2018-12-18T10:04:08.548Z,776.00
2018-12-18T10:05:08.679Z,828.00
2018-12-18T10:06:08.812Z,864.00
2018-12-18T10:07:08.938Z,824.00
2018-12-18T10:08:09.065Z,808.00
2018-12-18T10:09:09.741Z,792.00
2018-12-18T10:10:09.342Z,788.00
2018-12-18T10:11:09.471Z,816.00
2018-12-18T10:12:09.606Z,848.00
2018-12-18T10:13:09.741Z,876.00
2018-12-18T10:14:09.878Z,904.00
2018-12-18T10:15:10.043Z,912.00
2018-12-18T10:16:10.174Z,880.00
2018-12-18T10:17:10.301Z,860.00
2018-12-18T10:18:10.449Z,828.00
2018-12-18T10:19:10.571Z,804.00
2018-12-18T10:20:10.706Z,804.00
2018-12-18T10:21:10.832Z,820.00
2018-12-18T10:22:10.969Z,832.00
2018-12-18T10:23:11.100Z,892.00
2018-12-18T10:24:11.220Z,932.00
2018-12-18T10:25:11.360Z,924.00
2018-12-18T10:26:12.183Z,956.00
2018-12-18T10:27:11.573Z,976.00
2018-12-18T10:28:11.704Z,1000.00
2018-12-18T10:29:11.835Z,1024.00
2018-12-18T10:30:11.966Z,1008.00
2018-12-18T10:31:12.096Z,964.00
2018-12-18T10:32:12.225Z,924.00
2018-12-18T10:33:12.357Z,908.00
2018-12-18T10:34:12.487Z,912.00
2018-12-18T10:35:12.622Z,824.00
2018-12-18T10:36:12.752Z,772.00
2018-12-18T10:37:12.887Z,748.00
2018-12-18T10:38:13.046Z,748.00
2018-12-18T10:39:13.152Z,752.00
2018-12-18T10:40:13.299Z,808.00
2018-12-18T10:41:13.457Z,880.00
2018-12-18T10:42:13.579Z,852.00
2018-12-18T10:43:13.725Z,808.00
2018-12-18T10:44:13.859Z,772.00
2018-12-18T10:45:13.997Z,756.00
2018-12-18T10:46:14.133Z,732.00
2018-12-18T10:47:14.262Z,708.00
2018-12-18T10:48:14.390Z,712.00
2018-12-18T10:49:14.522Z,704.00
2018-12-18T10:50:14.649Z,688.00
2018-12-18T10:51:14.781Z,692.00
2018-12-18T10:52:14.915Z,700.00
2018-12-18T10:53:15.044Z,680.00
2018-12-18T10:54:15.187Z,644.00
2018-12-18T10:55:15.315Z,652.00
2018-12-18T10:56:15.440Z,632.00
2018-12-18T10:57:15.572Z,632.00
2018-12-18T10:58:15.722Z,672.00
2018-12-18T10:59:38.965Z,684.00
2018-12-18T11:00:15.964Z,664.00
2018-12-18T11:01:16.109Z,624.00
2018-12-18T11:02:16.246Z,588.00
2018-12-18T11:03:16.373Z,560.00
2018-12-18T11:04:16.502Z,532.00
2018-12-18T11:05:16.627Z,516.00
2018-12-18T11:06:16.776Z,504.00
2018-12-18T11:07:16.894Z,484.00
2018-12-18T11:08:17.034Z,496.00
2018-12-18T11:09:17.165Z,524.00
2018-12-18T11:10:17.302Z,536.00
2018-12-18T11:11:17.432Z,580.00
2018-12-18T11:12:17.559Z,596.00
2018-12-18T11:13:17.690Z,596.00
2018-12-18T11:14:17.819Z,568.00
2018-12-18T11:15:17.947Z,572.00
2018-12-18T11:16:18.081Z,592.00
2018-12-18T11:17:18.218Z,596.00
2018-12-18T11:18:18.344Z,612.00
2018-12-18T11:19:18.477Z,620.00
2018-12-18T11:20:18.601Z,592.00
2018-12-18T11:21:18.736Z,592.00
2018-12-18T11:22:18.862Z,672.00
2018-12-18T11:23:19.803Z,732.00
2018-12-18T11:24:19.120Z,768.00
2018-12-18T11:25:19.243Z,816.00
2018-12-18T11:26:19.383Z,832.00
2018-12-18T11:27:19.515Z,900.00
2018-12-18T11:28:19.648Z,960.00
2018-12-18T11:29:19.845Z,888.00
2018-12-18T11:30:19.915Z,892.00
2018-12-18T11:31:20.044Z,908.00
2018-12-18T11:32:20.173Z,912.00
2018-12-18T11:33:20.299Z,928.00
2018-12-18T11:34:20.429Z,928.00
2018-12-18T11:35:20.615Z,896.00
2018-12-18T11:36:20.691Z,880.00
2018-12-18T11:37:20.829Z,884.00
2018-12-18T11:38:20.950Z,880.00
2018-12-18T11:39:21.085Z,860.00
2018-12-18T11:40:21.212Z,888.00
2018-12-18T11:41:21.337Z,852.00
2018-12-18T11:42:21.479Z,816.00
2018-12-18T11:43:21.608Z,924.00
2018-12-18T11:44:21.733Z,920.00
2018-12-18T11:45:21.862Z,860.00
2018-12-18T11:46:22.000Z,868.00
2018-12-18T11:47:22.133Z,924.00
2018-12-18T11:48:22.257Z,964.00
2018-12-18T11:49:22.943Z,968.00
2018-12-18T11:50:22.471Z,948.00
2018-12-18T11:51:22.606Z,952.00
2018-12-18T11:52:22.732Z,932.00
2018-12-18T11:53:22.863Z,900.00
2018-12-18T11:54:22.987Z,912.00
2018-12-18T11:55:23.120Z,932.00
2018-12-18T11:56:23.252Z,952.00
2018-12-18T11:57:23.378Z,908.00
2018-12-18T11:58:23.519Z,924.00
2018-12-18T11:59:23.653Z,976.00
2018-12-18T12:00:23.785Z,948.00
2018-12-18T12:01:23.922Z,976.00
2018-12-18T12:02:24.072Z,988.00
2018-12-18T12:03:24.199Z,948.00
2018-12-18T12:04:24.327Z,868.00
2018-12-18T12:05:24.456Z,780.00
2018-12-18T12:06:24.583Z,768.00
2018-12-18T12:07:24.710Z,820.00
2018-12-18T12:08:24.845Z,872.00
2018-12-18T12:09:24.974Z,924.00
2018-12-18T12:10:25.101Z,928.00
2018-12-18T12:11:25.227Z,884.00
2018-12-18T12:12:25.360Z,852.00
2018-12-18T12:13:25.495Z,804.00
2018-12-18T12:14:25.631Z,784.00
2018-12-18T12:15:25.752Z,796.00
2018-12-18T12:16:25.882Z,828.00
2018-12-18T12:17:26.008Z,824.00
2018-12-18T12:18:26.135Z,868.00
2018-12-18T12:19:26.263Z,840.00
2018-12-18T12:20:26.407Z,772.00
2018-12-18T12:21:26.540Z,716.00
2018-12-18T12:22:26.666Z,692.00
2018-12-18T12:23:26.807Z,656.00
2018-12-18T12:24:26.932Z,636.00
2018-12-18T12:25:27.064Z,648.00
2018-12-18T12:26:27.192Z,660.00
2018-12-18T12:27:27.330Z,668.00
2018-12-18T12:28:27.464Z,692.00
2018-12-18T12:29:27.588Z,712.00
2018-12-18T12:30:27.717Z,708.00
2018-12-18T12:31:27.852Z,672.00
2018-12-18T12:32:27.986Z,668.00
2018-12-18T12:33:28.113Z,676.00
2018-12-18T12:34:28.246Z,652.00
2018-12-18T12:35:28.375Z,628.00
2018-12-18T12:36:29.864Z,596.00
2018-12-18T12:37:28.632Z,584.00
2018-12-18T12:38:28.766Z,612.00
2018-12-18T12:39:28.904Z,628.00
2018-12-18T12:40:29.697Z,624.00
2018-12-18T12:41:29.170Z,620.00
2018-12-18T12:42:29.298Z,628.00
2018-12-18T12:43:29.423Z,632.00
2018-12-18T12:44:29.555Z,644.00
2018-12-18T12:45:29.682Z,676.00
2018-12-18T12:46:30.456Z,660.00
2018-12-18T12:47:29.995Z,636.00
2018-12-18T12:48:30.119Z,636.00
2018-12-18T12:49:30.249Z,636.00
2018-12-18T12:50:30.401Z,640.00
2018-12-18T12:51:30.529Z,668.00
2018-12-18T12:52:30.658Z,692.00
2018-12-18T12:53:30.786Z,748.00
2018-12-18T12:54:30.917Z,824.00
2018-12-18T12:55:31.055Z,832.00
2018-12-18T12:56:31.192Z,772.00
2018-12-18T12:57:31.313Z,760.00
2018-12-18T12:58:31.449Z,752.00
2018-12-18T12:59:31.571Z,748.00